sensor_id;sensor_type;location;lat;lon;timestamp;pressure;altitude;pressure_sealevel;temperature;humidity
28167;BME280;15455;53.376;-6.262;2023-02-16T00:00:50;101095.16;;;6.67;100.00
28167;BME280;15455;53.376;-6.262;2023-02-16T00:03:36;101097.81;;;6.69;100.00
28167;BME280;15455;53.376;-6.262;2023-02-16T00:06:22;101109.03;;;6.69;100.00
28167;BME280;15455;53.376;-6.262;2023-02-16T00:09:08;101094.34;;;6.70;100.00
28167;BME280;15455;53.376;-6.262;2023-02-16T00:11:54;101094.31;;;6.68;100.00
28167;BME280;15455;53.376;-6.262;2023-02-16T00:14:58;101090.84;;;6.68;100.00
28167;BME280;15455;53.376;-6.262;2023-02-16T00:17:43;101088.28;;;6.69;100.00
28167;BME280;15455;53.376;-6.262;2023-02-16T00:20:29;101083.97;;;6.70;100.00
28167;BME280;15455;53.376;-6.262;2023-02-16T00:23:14;101078.84;;;6.73;100.00
28167;BME280;15455;53.376;-6.262;2023-02-16T00:26:00;101074.53;;;6.73;100.00
28167;BME280;15455;53.376;-6.262;2023-02-16T00:28:48;101067.66;;;6.75;100.00
28167;BME280;15455;53.376;-6.262;2023-02-16T00:31:34;101074.63;;;6.78;100.00
28167;BME280;15455;53.376;-6.262;2023-02-16T00:37:17;101065.13;;;6.80;100.00
28167;BME280;15455;53.376;-6.262;2023-02-16T00:40:03;101062.63;;;6.83;100.00
28167;BME280;15455;53.376;-6.262;2023-02-16T00:42:48;101068.69;;;6.85;100.00
28167;BME280;15455;53.376;-6.262;2023-02-16T00:45:36;101065.25;;;6.86;100.00
28167;BME280;15455;53.376;-6.262;2023-02-16T00:48:23;101061.00;;;6.90;100.00
28167;BME280;15455;53.376;-6.262;2023-02-16T00:51:10;101056.66;;;6.90;100.00
28167;BME280;15455;53.376;-6.262;2023-02-16T00:54:10;101065.34;;;6.92;100.00
28167;BME280;15455;53.376;-6.262;2023-02-16T00:56:56;101061.94;;;6.93;100.00
28167;BME280;15455;53.376;-6.262;2023-02-16T00:59:42;101055.91;;;6.96;100.00
28167;BME280;15455;53.376;-6.262;2023-02-16T01:02:28;101042.94;;;6.98;100.00
28167;BME280;15455;53.376;-6.262;2023-02-16T01:05:14;101058.50;;;6.98;100.00
28167;BME280;15455;53.376;-6.262;2023-02-16T01:08:00;101048.19;;;6.99;100.00
28167;BME280;15455;53.376;-6.262;2023-02-16T01:11:06;101042.13;;;7.00;100.00
28167;BME280;15455;53.376;-6.262;2023-02-16T01:13:57;101037.84;;;7.01;100.00
28167;BME280;15455;53.376;-6.262;2023-02-16T01:16:43;101035.25;;;7.01;100.00
28167;BME280;15455;53.376;-6.262;2023-02-16T01:19:29;101035.25;;;7.02;100.00
28167;BME280;15455;53.376;-6.262;2023-02-16T01:22:14;101040.47;;;7.04;100.00
28167;BME280;15455;53.376;-6.262;2023-02-16T01:25:00;101040.44;;;7.02;100.00
28167;BME280;15455;53.376;-6.262;2023-02-16T01:27:46;101039.59;;;7.05;100.00
28167;BME280;15455;53.376;-6.262;2023-02-16T01:30:31;101044.06;;;7.12;100.00
28167;BME280;15455;53.376;-6.262;2023-02-16T01:33:17;101039.81;;;7.17;100.00
28167;BME280;15455;53.376;-6.262;2023-02-16T01:36:03;101039.19;;;7.32;100.00
28167;BME280;15455;53.376;-6.262;2023-02-16T01:38:49;101041.88;;;7.37;100.00
28167;BME280;15455;53.376;-6.262;2023-02-16T01:44:27;101026.44;;;7.47;100.00
28167;BME280;15455;53.376;-6.262;2023-02-16T01:50:24;101032.72;;;7.63;100.00
28167;BME280;15455;53.376;-6.262;2023-02-16T01:53:32;101030.13;;;7.63;100.00
28167;BME280;15455;53.376;-6.262;2023-02-16T02:02:35;101040.00;;;7.88;100.00
28167;BME280;15455;53.376;-6.262;2023-02-16T02:05:26;101047.81;;;7.91;100.00
28167;BME280;15455;53.376;-6.262;2023-02-16T02:08:30;101046.06;;;7.90;100.00
28167;BME280;15455;53.376;-6.262;2023-02-16T02:14:24;101031.38;;;7.90;100.00
28167;BME280;15455;53.376;-6.262;2023-02-16T02:17:17;101023.63;;;7.95;100.00
28167;BME280;15455;53.376;-6.262;2023-02-16T02:20:34;101021.88;;;7.95;100.00
28167;BME280;15455;53.376;-6.262;2023-02-16T02:24:07;101031.38;;;7.90;100.00
28167;BME280;15455;53.376;-6.262;2023-02-16T02:27:14;101032.19;;;7.86;100.00
28167;BME280;15455;53.376;-6.262;2023-02-16T02:36:35;101026.25;;;7.98;100.00
28167;BME280;15455;53.376;-6.262;2023-02-16T02:42:42;101009.53;;;7.77;100.00
28167;BME280;15455;53.376;-6.262;2023-02-16T02:45:37;101008.78;;;7.86;100.00
28167;BME280;15455;53.376;-6.262;2023-02-16T02:48:30;100998.41;;;7.86;100.00
28167;BME280;15455;53.376;-6.262;2023-02-16T02:51:16;100994.84;;;7.79;100.00
28167;BME280;15455;53.376;-6.262;2023-02-16T02:54:46;101013.16;;;7.89;100.00
28167;BME280;15455;53.376;-6.262;2023-02-16T02:57:53;101014.09;;;7.95;100.00
28167;BME280;15455;53.376;-6.262;2023-02-16T03:00:58;101016.81;;;8.03;100.00
28167;BME280;15455;53.376;-6.262;2023-02-16T03:03:50;101029.75;;;8.02;100.00
28167;BME280;15455;53.376;-6.262;2023-02-16T03:06:42;101035.06;;;8.09;100.00
28167;BME280;15455;53.376;-6.262;2023-02-16T03:09:30;101040.31;;;8.12;100.00
28167;BME280;15455;53.376;-6.262;2023-02-16T03:12:15;101054.28;;;8.22;100.00
28167;BME280;15455;53.376;-6.262;2023-02-16T03:15:21;101060.44;;;8.30;100.00
28167;BME280;15455;53.376;-6.262;2023-02-16T03:18:09;101057.91;;;8.35;100.00
28167;BME280;15455;53.376;-6.262;2023-02-16T03:21:16;101058.91;;;8.45;100.00
28167;BME280;15455;53.376;-6.262;2023-02-16T03:24:27;101060.72;;;8.54;100.00
28167;BME280;15455;53.376;-6.262;2023-02-16T03:27:39;101059.03;;;8.54;100.00
28167;BME280;15455;53.376;-6.262;2023-02-16T03:30:45;101065.97;;;8.55;100.00
28167;BME280;15455;53.376;-6.262;2023-02-16T03:33:32;101072.06;;;8.57;100.00
28167;BME280;15455;53.376;-6.262;2023-02-16T03:36:29;101076.44;;;8.61;100.00
28167;BME280;15455;53.376;-6.262;2023-02-16T03:39:16;101078.25;;;8.67;100.00
28167;BME280;15455;53.376;-6.262;2023-02-16T03:42:03;101064.41;;;8.71;100.00
28167;BME280;15455;53.376;-6.262;2023-02-16T03:44:49;101043.59;;;8.69;100.00
28167;BME280;15455;53.376;-6.262;2023-02-16T03:47:35;101047.88;;;8.69;100.00
28167;BME280;15455;53.376;-6.262;2023-02-16T03:50:21;101045.31;;;8.72;100.00
28167;BME280;15455;53.376;-6.262;2023-02-16T03:53:07;101036.66;;;8.72;100.00
28167;BME280;15455;53.376;-6.262;2023-02-16T03:55:52;101039.22;;;8.68;100.00
28167;BME280;15455;53.376;-6.262;2023-02-16T03:58:38;101034.03;;;8.68;100.00
28167;BME280;15455;53.376;-6.262;2023-02-16T04:01:23;101049.66;;;8.72;100.00
28167;BME280;15455;53.376;-6.262;2023-02-16T04:04:09;101046.22;;;8.76;100.00
28167;BME280;15455;53.376;-6.262;2023-02-16T04:06:54;101038.44;;;8.76;100.00
28167;BME280;15455;53.376;-6.262;2023-02-16T04:09:40;101050.53;;;8.74;100.00
28167;BME280;15455;53.376;-6.262;2023-02-16T04:12:25;101047.06;;;8.72;100.00
28167;BME280;15455;53.376;-6.262;2023-02-16T04:15:25;101056.66;;;8.76;100.00
28167;BME280;15455;53.376;-6.262;2023-02-16T04:18:11;101054.97;;;8.82;100.00
28167;BME280;15455;53.376;-6.262;2023-02-16T04:20:56;101050.66;;;8.83;100.00
28167;BME280;15455;53.376;-6.262;2023-02-16T04:23:41;101045.44;;;8.84;100.00
28167;BME280;15455;53.376;-6.262;2023-02-16T04:26:27;101051.53;;;8.88;100.00
28167;BME280;15455;53.376;-6.262;2023-02-16T04:29:12;101053.34;;;8.94;100.00
28167;BME280;15455;53.376;-6.262;2023-02-16T04:31:57;101056.81;;;8.94;100.00
28167;BME280;15455;53.376;-6.262;2023-02-16T04:34:43;101060.28;;;8.95;100.00
28167;BME280;15455;53.376;-6.262;2023-02-16T04:37:29;101064.69;;;9.00;100.00
28167;BME280;15455;53.376;-6.262;2023-02-16T04:40:16;101059.53;;;9.07;100.00
28167;BME280;15455;53.376;-6.262;2023-02-16T04:43:02;101070.84;;;9.09;100.00
28167;BME280;15455;53.376;-6.262;2023-02-16T04:45:47;101077.78;;;9.11;100.00
28167;BME280;15455;53.376;-6.262;2023-02-16T04:48:33;101074.31;;;9.11;100.00
28167;BME280;15455;53.376;-6.262;2023-02-16T04:51:18;101072.59;;;9.13;100.00
28167;BME280;15455;53.376;-6.262;2023-02-16T04:54:05;101089.13;;;9.16;100.00
28167;BME280;15455;53.376;-6.262;2023-02-16T04:56:51;101086.53;;;9.18;100.00
28167;BME280;15455;53.376;-6.262;2023-02-16T04:59:37;101091.75;;;9.19;100.00
28167;BME280;15455;53.376;-6.262;2023-02-16T05:02:22;101080.47;;;9.19;100.00
28167;BME280;15455;53.376;-6.262;2023-02-16T05:05:08;101092.59;;;9.17;100.00
28167;BME280;15455;53.376;-6.262;2023-02-16T05:07:53;101096.09;;;9.17;100.00
28167;BME280;15455;53.376;-6.262;2023-02-16T05:10:38;101089.13;;;9.15;100.00
28167;BME280;15455;53.376;-6.262;2023-02-16T05:13:26;101094.34;;;9.16;100.00
28167;BME280;15455;53.376;-6.262;2023-02-16T05:16:30;101106.50;;;9.17;100.00
28167;BME280;15455;53.376;-6.262;2023-02-16T05:19:15;101115.19;;;9.18;100.00
28167;BME280;15455;53.376;-6.262;2023-02-16T05:22:01;101112.56;;;9.16;100.00
28167;BME280;15455;53.376;-6.262;2023-02-16T05:24:48;101094.31;;;9.15;100.00
28167;BME280;15455;53.376;-6.262;2023-02-16T05:27:33;101095.16;;;9.14;100.00
28167;BME280;15455;53.376;-6.262;2023-02-16T05:30:19;101089.09;;;9.12;100.00
28167;BME280;15455;53.376;-6.262;2023-02-16T05:33:04;101092.56;;;9.12;100.00
28167;BME280;15455;53.376;-6.262;2023-02-16T05:35:50;101095.16;;;9.14;100.00
28167;BME280;15455;53.376;-6.262;2023-02-16T05:38:35;101110.78;;;9.14;100.00
28167;BME280;15455;53.376;-6.262;2023-02-16T05:41:20;101110.78;;;9.12;100.00
28167;BME280;15455;53.376;-6.262;2023-02-16T05:44:09;101116.00;;;9.12;100.00
28167;BME280;15455;53.376;-6.262;2023-02-16T05:46:55;101124.66;;;9.13;100.00
28167;BME280;15455;53.376;-6.262;2023-02-16T05:49:41;101127.28;;;9.13;100.00
28167;BME280;15455;53.376;-6.262;2023-02-16T05:52:26;101128.16;;;9.12;100.00
28167;BME280;15455;53.376;-6.262;2023-02-16T05:55:11;101139.44;;;9.12;100.00
28167;BME280;15455;53.376;-6.262;2023-02-16T05:57:57;101147.25;;;9.12;100.00
28167;BME280;15455;53.376;-6.262;2023-02-16T06:00:42;101160.25;;;9.12;100.00
28167;BME280;15455;53.376;-6.262;2023-02-16T06:03:28;101169.81;;;9.12;100.00
28167;BME280;15455;53.376;-6.262;2023-02-16T06:06:13;101181.94;;;9.11;100.00
28167;BME280;15455;53.376;-6.262;2023-02-16T06:08:59;101175.88;;;9.11;100.00
28167;BME280;15455;53.376;-6.262;2023-02-16T06:11:45;101186.28;;;9.09;100.00
28167;BME280;15455;53.376;-6.262;2023-02-16T06:14:30;101180.19;;;9.09;100.00
28167;BME280;15455;53.376;-6.262;2023-02-16T06:17:16;101188.00;;;9.09;100.00
28167;BME280;15455;53.376;-6.262;2023-02-16T06:20:02;101179.31;;;9.10;100.00
28167;BME280;15455;53.376;-6.262;2023-02-16T06:22:48;101179.34;;;9.11;100.00
28167;BME280;15455;53.376;-6.262;2023-02-16T06:25:34;101181.91;;;9.10;100.00
28167;BME280;15455;53.376;-6.262;2023-02-16T06:28:19;101187.13;;;9.10;100.00
28167;BME280;15455;53.376;-6.262;2023-02-16T06:31:04;101189.72;;;9.10;100.00
28167;BME280;15455;53.376;-6.262;2023-02-16T06:33:51;101187.13;;;9.08;100.00
28167;BME280;15455;53.376;-6.262;2023-02-16T06:36:36;101181.03;;;9.08;100.00
28167;BME280;15455;53.376;-6.262;2023-02-16T06:39:24;101197.50;;;9.05;100.00
28167;BME280;15455;53.376;-6.262;2023-02-16T06:42:10;101197.50;;;9.05;100.00
28167;BME280;15455;53.376;-6.262;2023-02-16T06:44:55;101197.50;;;9.05;100.00
28167;BME280;15455;53.376;-6.262;2023-02-16T06:47:40;101203.56;;;9.04;100.00
28167;BME280;15455;53.376;-6.262;2023-02-16T06:50:26;101199.22;;;9.03;100.00
28167;BME280;15455;53.376;-6.262;2023-02-16T06:53:11;101207.03;;;9.01;100.00
28167;BME280;15455;53.376;-6.262;2023-02-16T06:55:56;101201.81;;;9.00;100.00
28167;BME280;15455;53.376;-6.262;2023-02-16T06:58:42;101205.25;;;9.00;100.00
28167;BME280;15455;53.376;-6.262;2023-02-16T07:01:28;101207.84;;;8.99;100.00
28167;BME280;15455;53.376;-6.262;2023-02-16T07:04:13;101206.13;;;8.99;100.00
28167;BME280;15455;53.376;-6.262;2023-02-16T07:06:59;101215.66;;;8.99;100.00
28167;BME280;15455;53.376;-6.262;2023-02-16T07:09:44;101213.94;;;8.99;100.00
28167;BME280;15455;53.376;-6.262;2023-02-16T07:12:30;101225.16;;;8.97;100.00
28167;BME280;15455;53.376;-6.262;2023-02-16T07:15:15;101226.91;;;8.96;100.00
28167;BME280;15455;53.376;-6.262;2023-02-16T07:18:01;101232.13;;;8.96;100.00
28167;BME280;15455;53.376;-6.262;2023-02-16T07:20:47;101232.97;;;8.95;100.00
28167;BME280;15455;53.376;-6.262;2023-02-16T07:23:33;101239.06;;;8.96;100.00
28167;BME280;15455;53.376;-6.262;2023-02-16T07:26:18;101234.69;;;8.95;100.00
28167;BME280;15455;53.376;-6.262;2023-02-16T07:29:04;101240.75;;;8.94;100.00
28167;BME280;15455;53.376;-6.262;2023-02-16T07:31:49;101239.91;;;8.93;100.00
28167;BME280;15455;53.376;-6.262;2023-02-16T07:34:36;101247.69;;;8.93;100.00
28167;BME280;15455;53.376;-6.262;2023-02-16T07:37:21;101252.88;;;8.92;100.00
28167;BME280;15455;53.376;-6.262;2023-02-16T07:40:07;101254.63;;;8.91;100.00
28167;BME280;15455;53.376;-6.262;2023-02-16T07:42:52;101247.66;;;8.90;100.00
28167;BME280;15455;53.376;-6.262;2023-02-16T07:45:37;101245.06;;;8.90;100.00
28167;BME280;15455;53.376;-6.262;2023-02-16T07:48:23;101243.28;;;8.88;100.00
28167;BME280;15455;53.376;-6.262;2023-02-16T07:51:09;101251.94;;;8.86;100.00
28167;BME280;15455;53.376;-6.262;2023-02-16T07:53:55;101251.94;;;8.85;100.00
28167;BME280;15455;53.376;-6.262;2023-02-16T07:56:41;101255.34;;;8.82;100.00
28167;BME280;15455;53.376;-6.262;2023-02-16T07:59:26;101259.66;;;8.79;100.00
28167;BME280;15455;53.376;-6.262;2023-02-16T08:02:19;101268.31;;;8.78;100.00
28167;BME280;15455;53.376;-6.262;2023-02-16T08:05:05;101289.13;;;8.76;100.00
28167;BME280;15455;53.376;-6.262;2023-02-16T08:07:50;101303.03;;;8.77;100.00
28167;BME280;15455;53.376;-6.262;2023-02-16T08:10:36;101296.94;;;8.76;100.00
28167;BME280;15455;53.376;-6.262;2023-02-16T08:13:21;101298.66;;;8.76;100.00
28167;BME280;15455;53.376;-6.262;2023-02-16T08:16:19;101309.06;;;8.74;100.00
28167;BME280;15455;53.376;-6.262;2023-02-16T08:19:05;101315.13;;;8.75;100.00
28167;BME280;15455;53.376;-6.262;2023-02-16T08:21:50;101316.00;;;8.75;100.00
28167;BME280;15455;53.376;-6.262;2023-02-16T08:24:36;101329.91;;;8.76;100.00
28167;BME280;15455;53.376;-6.262;2023-02-16T08:27:21;101331.66;;;8.77;100.00
28167;BME280;15455;53.376;-6.262;2023-02-16T08:30:07;101344.63;;;8.75;100.00
28167;BME280;15455;53.376;-6.262;2023-02-16T08:32:57;101343.75;;;8.75;100.00
28167;BME280;15455;53.376;-6.262;2023-02-16T08:35:45;101353.31;;;8.74;100.00
28167;BME280;15455;53.376;-6.262;2023-02-16T08:38:30;101355.84;;;8.71;100.00
28167;BME280;15455;53.376;-6.262;2023-02-16T08:41:20;101360.97;;;8.66;100.00
28167;BME280;15455;53.376;-6.262;2023-02-16T08:44:07;101363.50;;;8.62;100.00
28167;BME280;15455;53.376;-6.262;2023-02-16T08:46:55;101359.97;;;8.55;100.00
28167;BME280;15455;53.376;-6.262;2023-02-16T08:49:41;101362.47;;;8.52;100.00
28167;BME280;15455;53.376;-6.262;2023-02-16T08:52:28;101362.47;;;8.50;100.00
28167;BME280;15455;53.376;-6.262;2023-02-16T08:55:14;101361.56;;;8.48;100.00
28167;BME280;15455;53.376;-6.262;2023-02-16T08:57:59;101360.72;;;8.48;100.00
28167;BME280;15455;53.376;-6.262;2023-02-16T09:00:45;101356.34;;;8.47;100.00
28167;BME280;15455;53.376;-6.262;2023-02-16T09:03:31;101365.00;;;8.46;100.00
28167;BME280;15455;53.376;-6.262;2023-02-16T09:06:18;101364.16;;;8.47;100.00
28167;BME280;15455;53.376;-6.262;2023-02-16T09:09:06;101358.06;;;8.46;100.00
28167;BME280;15455;53.376;-6.262;2023-02-16T09:11:53;101355.44;;;8.45;100.00
28167;BME280;15455;53.376;-6.262;2023-02-16T09:14:38;101359.81;;;8.47;100.00
28167;BME280;15455;53.376;-6.262;2023-02-16T09:17:24;101362.38;;;8.46;100.00
28167;BME280;15455;53.376;-6.262;2023-02-16T09:20:11;101379.75;;;8.47;100.00
28167;BME280;15455;53.376;-6.262;2023-02-16T09:22:57;101378.88;;;8.46;100.00
28167;BME280;15455;53.376;-6.262;2023-02-16T09:25:42;101378.03;;;8.47;100.00
28167;BME280;15455;53.376;-6.262;2023-02-16T09:28:28;101376.31;;;8.48;100.00
28167;BME280;15455;53.376;-6.262;2023-02-16T09:31:22;101378.09;;;8.52;100.00
28167;BME280;15455;53.376;-6.262;2023-02-16T09:34:16;101369.34;;;8.47;100.00
28167;BME280;15455;53.376;-6.262;2023-02-16T09:37:02;101371.84;;;8.42;100.00
28167;BME280;15455;53.376;-6.262;2023-02-16T09:39:48;101362.25;;;8.38;100.00
28167;BME280;15455;53.376;-6.262;2023-02-16T09:42:51;101357.00;;;8.35;100.00
28167;BME280;15455;53.376;-6.262;2023-02-16T09:45:44;101362.16;;;8.32;100.00
28167;BME280;15455;53.376;-6.262;2023-02-16T09:48:39;101367.38;;;8.33;100.00
28167;BME280;15455;53.376;-6.262;2023-02-16T09:51:39;101380.50;;;8.41;100.00
28167;BME280;15455;53.376;-6.262;2023-02-16T09:54:41;101397.06;;;8.45;100.00
28167;BME280;15455;53.376;-6.262;2023-02-16T10:06:29;101408.41;;;8.50;100.00
28167;BME280;15455;53.376;-6.262;2023-02-16T10:09:18;101416.28;;;8.53;100.00
28167;BME280;15455;53.376;-6.262;2023-02-16T10:12:14;101434.53;;;8.56;100.00
28167;BME280;15455;53.376;-6.262;2023-02-16T10:15:13;101427.53;;;8.54;100.00
28167;BME280;15455;53.376;-6.262;2023-02-16T10:18:07;101419.75;;;8.54;100.00
28167;BME280;15455;53.376;-6.262;2023-02-16T10:21:03;101432.00;;;8.61;100.00
28167;BME280;15455;53.376;-6.262;2023-02-16T10:23:58;101433.81;;;8.65;100.00
28167;BME280;15455;53.376;-6.262;2023-02-16T10:26:56;101447.66;;;8.62;100.00
28167;BME280;15455;53.376;-6.262;2023-02-16T10:29:46;101450.09;;;8.53;100.00
28167;BME280;15455;53.376;-6.262;2023-02-16T10:32:37;101448.34;;;8.52;100.00
28167;BME280;15455;53.376;-6.262;2023-02-16T10:35:37;101444.84;;;8.50;100.00
28167;BME280;15455;53.376;-6.262;2023-02-16T10:38:48;101443.13;;;8.52;100.00
28167;BME280;15455;53.376;-6.262;2023-02-16T10:41:39;101457.94;;;8.56;100.00
28167;BME280;15455;53.376;-6.262;2023-02-16T10:44:36;101457.06;;;8.54;100.00
28167;BME280;15455;53.376;-6.262;2023-02-16T10:47:39;101447.50;;;8.55;100.00
28167;BME280;15455;53.376;-6.262;2023-02-16T10:50:34;101450.22;;;8.61;100.00
28167;BME280;15455;53.376;-6.262;2023-02-16T10:56:44;101456.56;;;8.77;100.00
28167;BME280;15455;53.376;-6.262;2023-02-16T10:59:44;101457.53;;;8.83;100.00
28167;BME280;15455;53.376;-6.262;2023-02-16T11:02:50;101445.25;;;8.75;100.00
28167;BME280;15455;53.376;-6.262;2023-02-16T11:05:38;101445.94;;;8.64;100.00
28167;BME280;15455;53.376;-6.262;2023-02-16T11:08:45;101442.25;;;8.51;100.00
28167;BME280;15455;53.376;-6.262;2023-02-16T11:11:39;101442.06;;;8.41;100.00
28167;BME280;15455;53.376;-6.262;2023-02-16T11:14:29;101452.44;;;8.39;100.00
28167;BME280;15455;53.376;-6.262;2023-02-16T11:17:16;101455.03;;;8.39;100.00
28167;BME280;15455;53.376;-6.262;2023-02-16T11:20:07;101464.59;;;8.42;100.00
28167;BME280;15455;53.376;-6.262;2023-02-16T11:28:52;101456.44;;;8.71;100.00
28167;BME280;15455;53.376;-6.262;2023-02-16T11:31:38;101461.88;;;8.83;100.00
28167;BME280;15455;53.376;-6.262;2023-02-16T11:37:32;101464.53;;;8.88;100.00
28167;BME280;15455;53.376;-6.262;2023-02-16T11:40:25;101461.19;;;8.95;100.00
28167;BME280;15455;53.376;-6.262;2023-02-16T11:43:16;101462.19;;;9.03;100.00
28167;BME280;15455;53.376;-6.262;2023-02-16T11:46:03;101452.63;;;9.02;100.00
28167;BME280;15455;53.376;-6.262;2023-02-16T11:48:50;101455.28;;;9.05;100.00
28167;BME280;15455;53.376;-6.262;2023-02-16T11:51:35;101444.88;;;9.07;100.00
28167;BME280;15455;53.376;-6.262;2023-02-16T11:54:22;101440.66;;;9.13;100.00
28167;BME280;15455;53.376;-6.262;2023-02-16T11:57:11;101439.06;;;9.23;100.00
28167;BME280;15455;53.376;-6.262;2023-02-16T12:00:03;101426.16;;;9.32;100.00
28167;BME280;15455;53.376;-6.262;2023-02-16T12:06:29;101382.88;;;9.44;100.00
28167;BME280;15455;53.376;-6.262;2023-02-16T12:12:13;101367.22;;;9.41;100.00
28167;BME280;15455;53.376;-6.262;2023-02-16T12:21:22;101370.75;;;9.49;100.00
28167;BME280;15455;53.376;-6.262;2023-02-16T12:24:17;101372.91;;;9.81;100.00
28167;BME280;15455;53.376;-6.262;2023-02-16T12:39:21;101356.75;;;10.20;100.00
28167;BME280;15455;53.376;-6.262;2023-02-16T12:45:19;101344.84;;;10.49;100.00
28167;BME280;15455;53.376;-6.262;2023-02-16T12:51:08;101330.25;;;10.80;100.00
28167;BME280;15455;53.376;-6.262;2023-02-16T12:56:59;101326.75;;;10.75;100.00
28167;BME280;15455;53.376;-6.262;2023-02-16T13:00:44;101344.13;;;10.71;100.00
28167;BME280;15455;53.376;-6.262;2023-02-16T13:03:49;101337.94;;;10.62;100.00
28167;BME280;15455;53.376;-6.262;2023-02-16T13:10:01;101324.16;;;10.76;100.00
28167;BME280;15455;53.376;-6.262;2023-02-16T13:15:39;101322.41;;;10.77;100.00
28167;BME280;15455;53.376;-6.262;2023-02-16T13:18:30;101317.13;;;10.69;100.00
28167;BME280;15455;53.376;-6.262;2023-02-16T13:21:31;101316.25;;;10.67;100.00
28167;BME280;15455;53.376;-6.262;2023-02-16T13:30:46;101311.81;;;10.57;100.00
28167;BME280;15455;53.376;-6.262;2023-02-16T13:36:48;101301.38;;;10.52;100.00
28167;BME280;15455;53.376;-6.262;2023-02-16T13:46:13;101294.47;;;10.62;100.00
28167;BME280;15455;53.376;-6.262;2023-02-16T13:49:01;101283.19;;;10.66;100.00
28167;BME280;15455;53.376;-6.262;2023-02-16T13:51:46;101280.59;;;10.69;100.00
28167;BME280;15455;53.376;-6.262;2023-02-16T13:54:35;101286.69;;;10.74;100.00
28167;BME280;15455;53.376;-6.262;2023-02-16T14:12:03;101268.56;;;11.05;100.00
28167;BME280;15455;53.376;-6.262;2023-02-16T14:17:37;101247.75;;;11.22;100.00
28167;BME280;15455;53.376;-6.262;2023-02-16T14:20:27;101261.69;;;11.32;100.00
28167;BME280;15455;53.376;-6.262;2023-02-16T14:23:26;101255.63;;;11.45;100.00
28167;BME280;15455;53.376;-6.262;2023-02-16T14:26:12;101258.25;;;11.62;100.00
28167;BME280;15455;53.376;-6.262;2023-02-16T14:29:09;101244.31;;;11.71;100.00
28167;BME280;15455;53.376;-6.262;2023-02-16T14:32:26;101246.94;;;11.71;100.00
28167;BME280;15455;53.376;-6.262;2023-02-16T14:35:19;101251.31;;;11.68;100.00
28167;BME280;15455;53.376;-6.262;2023-02-16T14:38:14;101243.47;;;11.69;100.00
28167;BME280;15455;53.376;-6.262;2023-02-16T14:41:04;101246.06;;;11.78;100.00
28167;BME280;15455;53.376;-6.262;2023-02-16T14:50:10;101210.34;;;11.80;100.00
28167;BME280;15455;53.376;-6.262;2023-02-16T14:53:16;101194.66;;;11.80;100.00
28167;BME280;15455;53.376;-6.262;2023-02-16T15:02:37;101199.88;;;11.68;100.00
28167;BME280;15455;53.376;-6.262;2023-02-16T15:05:25;101205.97;;;11.62;100.00
28167;BME280;15455;53.376;-6.262;2023-02-16T15:08:18;101191.19;;;11.61;100.00
28167;BME280;15455;53.376;-6.262;2023-02-16T15:11:26;101194.66;;;11.60;100.00
28167;BME280;15455;53.376;-6.262;2023-02-16T15:14:14;101194.66;;;11.62;100.00
28167;BME280;15455;53.376;-6.262;2023-02-16T15:17:05;101181.59;;;11.60;100.00
28167;BME280;15455;53.376;-6.262;2023-02-16T15:19:53;101172.88;;;11.61;100.00
28167;BME280;15455;53.376;-6.262;2023-02-16T15:22:50;101183.31;;;11.54;100.00
28167;BME280;15455;53.376;-6.262;2023-02-16T15:25:38;101176.38;;;11.53;100.00
28167;BME280;15455;53.376;-6.262;2023-02-16T15:28:36;101185.91;;;11.57;100.00
28167;BME280;15455;53.376;-6.262;2023-02-16T15:31:33;101186.81;;;11.59;100.00
28167;BME280;15455;53.376;-6.262;2023-02-16T15:34:28;101178.97;;;11.59;100.00
28167;BME280;15455;53.376;-6.262;2023-02-16T15:37:23;101176.34;;;11.63;100.00
28167;BME280;15455;53.376;-6.262;2023-02-16T15:40:24;101175.50;;;11.64;100.00
28167;BME280;15455;53.376;-6.262;2023-02-16T15:46:13;101156.31;;;11.70;100.00
28167;BME280;15455;53.376;-6.262;2023-02-16T15:52:31;101168.50;;;11.85;100.00
28167;BME280;15455;53.376;-6.262;2023-02-16T15:55:18;101174.59;;;11.92;100.00
28167;BME280;15455;53.376;-6.262;2023-02-16T15:58:04;101178.09;;;11.95;100.00
28167;BME280;15455;53.376;-6.262;2023-02-16T16:00:51;101169.38;;;12.01;100.00
28167;BME280;15455;53.376;-6.262;2023-02-16T16:03:41;101173.72;;;12.08;100.00
28167;BME280;15455;53.376;-6.262;2023-02-16T16:06:32;101181.56;;;12.14;100.00
28167;BME280;15455;53.376;-6.262;2023-02-16T16:09:29;101183.28;;;12.20;100.00
28167;BME280;15455;53.376;-6.262;2023-02-16T16:12:17;101181.56;;;12.19;100.00
28167;BME280;15455;53.376;-6.262;2023-02-16T16:15:04;101179.81;;;12.18;100.00
28167;BME280;15455;53.376;-6.262;2023-02-16T16:17:52;101190.31;;;12.13;100.00
28167;BME280;15455;53.376;-6.262;2023-02-16T16:20:39;101170.25;;;12.12;100.00
28167;BME280;15455;53.376;-6.262;2023-02-16T16:23:28;101184.19;;;12.13;100.00
28167;BME280;15455;53.376;-6.262;2023-02-16T16:26:19;101178.09;;;12.08;100.00
28167;BME280;15455;53.376;-6.262;2023-02-16T16:32:24;101172.00;;;12.01;100.00
28167;BME280;15455;53.376;-6.262;2023-02-16T16:35:20;101180.72;;;12.03;100.00
28167;BME280;15455;53.376;-6.262;2023-02-16T16:38:25;101167.66;;;12.05;100.00
28167;BME280;15455;53.376;-6.262;2023-02-16T16:41:26;101157.19;;;12.06;100.00
28167;BME280;15455;53.376;-6.262;2023-02-16T16:44:37;101173.75;;;12.05;100.00
28167;BME280;15455;53.376;-6.262;2023-02-16T16:47:36;101175.47;;;12.02;100.00
28167;BME280;15455;53.376;-6.262;2023-02-16T16:50:34;101182.47;;;11.98;100.00
28167;BME280;15455;53.376;-6.262;2023-02-16T16:56:15;101179.84;;;11.95;100.00
28167;BME280;15455;53.376;-6.262;2023-02-16T16:59:00;101182.44;;;11.92;100.00
28167;BME280;15455;53.376;-6.262;2023-02-16T17:01:46;101178.09;;;11.94;100.00
28167;BME280;15455;53.376;-6.262;2023-02-16T17:04:34;101178.94;;;11.93;100.00